Time;durP1;ratioP1;P1;durP2;ratioP2;P2;SDS_P1;SDS_P2;PMS_P1;PMS_P2;Temp;Humidity;BMP_temperature;BMP_pressure;BME280_temperature;BME280_humidity;BME280_pressure;Samples;Min_cycle;Max_cycle;Signal;HPM_P1;HPM_P2
2023/08/06 00:00:16;;;;;;;0.68;0.10;;;;;;;16.26;100.00;99640.66;5028469;28;20029;-69
2023/08/06 00:02:42;;;;;;;0.30;0.10;;;;;;;16.31;100.00;99640.06;5029210;28;20620;-69
2023/08/06 00:05:07;;;;;;;1.35;0.10;;;;;;;16.36;100.00;99647.34;5026101;28;20030;-69
2023/08/06 00:07:33;;;;;;;0.40;0.10;;;;;;;16.38;100.00;99643.50;5025904;28;20038;-69
2023/08/06 00:09:58;;;;;;;0.82;0.10;;;;;;;16.43;100.00;99648.16;5030350;28;20052;-69
2023/08/06 00:12:24;;;;;;;0.88;0.10;;;;;;;16.45;100.00;99654.81;5029576;28;20038;-69
2023/08/06 00:14:53;;;;;;;0.22;0.00;;;;;;;16.46;100.00;99645.94;5021838;28;20072;-68
2023/08/06 00:17:18;;;;;;;0.10;0.00;;;;;;;16.45;100.00;99644.31;5031287;28;20128;-68
2023/08/06 00:19:44;;;;;;;1.67;0.10;;;;;;;16.44;100.00;99632.16;5027796;28;20112;-69
2023/08/06 00:22:09;;;;;;;0.22;0.00;;;;;;;16.45;100.00;99633.78;5031350;28;20477;-68
2023/08/06 00:24:35;;;;;;;1.15;0.00;;;;;;;16.43;100.00;99637.63;5023352;28;20033;-69
2023/08/06 00:27:01;;;;;;;0.15;0.00;;;;;;;16.40;100.00;99633.59;5021756;28;20033;-69
2023/08/06 00:29:27;;;;;;;0.30;0.00;;;;;;;16.38;100.00;99624.28;5026711;28;20088;-69
2023/08/06 00:31:52;;;;;;;1.85;0.45;;;;;;;16.37;100.00;99620.03;5027541;28;20029;-69
2023/08/06 00:34:17;;;;;;;0.10;0.00;;;;;;;16.37;100.00;99620.03;5031281;28;20500;-69
2023/08/06 00:36:43;;;;;;;1.55;0.00;;;;;;;16.38;100.00;99617.22;5024468;28;20037;-69
2023/08/06 00:39:08;;;;;;;1.15;0.00;;;;;;;16.39;100.00;99613.56;5024346;28;20036;-69
2023/08/06 00:41:34;;;;;;;4.75;0.00;;;;;;;16.43;100.00;99613.97;5031980;28;20038;-69
2023/08/06 00:43:59;;;;;;;0.32;0.00;;;;;;;16.46;100.00;99610.94;5023582;28;20042;-68
2023/08/06 00:46:26;;;;;;;4.10;0.00;;;;;;;16.45;100.00;99618.00;5030203;28;20056;-69
2023/08/06 00:48:51;;;;;;;0.10;0.00;;;;;;;16.44;100.00;99610.34;5030029;28;20037;-69
2023/08/06 00:51:17;;;;;;;0.10;0.00;;;;;;;16.42;100.00;99607.91;5026940;28;20471;-69
2023/08/06 00:53:42;;;;;;;0.10;0.00;;;;;;;16.48;100.00;99603.66;5024757;28;20037;-69
2023/08/06 00:56:09;;;;;;;2.05;0.00;;;;;;;16.51;100.00;99595.38;5024745;28;20028;-69
2023/08/06 00:58:36;;;;;;;0.00;0.00;;;;;;;16.53;100.00;99588.09;5024919;28;20045;-69
2023/08/06 01:01:02;;;;;;;0.10;0.00;;;;;;;16.55;100.00;99586.03;5029417;28;20029;-69
2023/08/06 01:03:27;;;;;;;3.03;0.00;;;;;;;16.53;100.00;99582.81;5028781;28;20033;-69
2023/08/06 01:05:53;;;;;;;0.88;0.00;;;;;;;16.49;100.00;99581.63;5026579;28;20064;-69
2023/08/06 01:08:54;;;;;;;0.40;0.10;;;;;;;16.42;100.00;99573.72;5018531;28;20040;-69
2023/08/06 01:11:37;;;;;;;0.20;0.00;;;;;;;16.42;100.00;99578.19;5027067;28;20029;-69
2023/08/06 01:14:08;;;;;;;1.00;0.10;;;;;;;16.44;100.00;99574.34;5026878;28;20397;-69
2023/08/06 01:16:33;;;;;;;1.90;0.00;;;;;;;16.45;100.00;99573.31;4975830;28;1420532;-69
2023/08/06 01:18:59;;;;;;;2.08;0.00;;;;;;;16.43;100.00;99567.47;5018648;28;20499;-69
2023/08/06 01:21:24;;;;;;;1.73;0.00;;;;;;;16.44;100.00;99565.63;5018706;28;20026;-69
2023/08/06 01:23:50;;;;;;;0.20;0.00;;;;;;;16.44;100.00;99566.44;5023084;28;20033;-69
2023/08/06 01:26:22;;;;;;;1.75;0.10;;;;;;;16.43;100.00;99571.91;5029693;28;20037;-69
2023/08/06 01:29:09;;;;;;;1.08;0.00;;;;;;;16.43;100.00;99569.28;5029658;28;20033;-68
2023/08/06 01:31:37;;;;;;;2.08;0.00;;;;;;;16.35;100.00;99566.84;5027732;28;20071;-69
2023/08/06 01:34:06;;;;;;;2.13;0.00;;;;;;;16.27;100.00;99562.59;5028273;28;20056;-69
2023/08/06 01:36:31;;;;;;;1.10;0.00;;;;;;;16.24;100.00;99574.34;5031693;28;20032;-69
2023/08/06 01:38:57;;;;;;;1.58;0.00;;;;;;;16.21;100.00;99579.19;5021511;28;20037;-69
2023/08/06 01:41:22;;;;;;;1.58;0.00;;;;;;;16.17;100.00;99578.78;5032100;28;20037;-69
2023/08/06 01:43:48;;;;;;;2.53;0.00;;;;;;;16.22;100.00;99573.72;5028531;28;20122;-69
2023/08/06 01:46:13;;;;;;;1.27;0.00;;;;;;;16.25;100.00;99567.25;5037382;28;20087;-69
2023/08/06 01:48:39;;;;;;;0.35;0.00;;;;;;;16.27;100.00;99562.59;5030232;28;20090;-69
2023/08/06 01:51:05;;;;;;;0.10;0.00;;;;;;;16.26;100.00;99566.25;5023782;28;20037;-69
2023/08/06 01:53:31;;;;;;;0.17;0.00;;;;;;;16.24;100.00;99558.56;5023680;28;20044;-70
2023/08/06 01:55:57;;;;;;;0.20;0.00;;;;;;;16.29;100.00;99557.97;5028524;28;20850;-69
2023/08/06 01:58:22;;;;;;;1.58;0.00;;;;;;;16.36;100.00;99560.59;5031794;28;20037;-69
2023/08/06 02:00:48;;;;;;;0.20;0.00;;;;;;;16.41;100.00;99558.97;5025204;28;20040;-69
2023/08/06 02:03:13;;;;;;;0.88;0.00;;;;;;;16.42;100.00;99549.25;5030226;28;20029;-69
2023/08/06 02:05:40;;;;;;;0.00;0.00;;;;;;;16.41;100.00;99550.28;5029403;28;20049;-69
2023/08/06 02:08:05;;;;;;;1.30;0.00;;;;;;;16.40;100.00;99552.09;5022599;28;20436;-69
2023/08/06 02:10:30;;;;;;;0.10;0.00;;;;;;;16.33;100.00;99547.84;5024223;28;20025;-69
2023/08/06 02:12:56;;;;;;;0.40;0.00;;;;;;;16.32;100.00;99556.75;5025091;28;20127;-69
2023/08/06 02:15:21;;;;;;;1.40;0.00;;;;;;;16.31;100.00;99555.94;5024388;28;20034;-69
2023/08/06 02:17:47;;;;;;;0.00;0.00;;;;;;;16.29;100.00;99562.41;5028001;28;20103;-69
2023/08/06 02:20:12;;;;;;;0.00;0.00;;;;;;;16.32;100.00;99569.88;5030069;28;20044;-69
2023/08/06 02:22:37;;;;;;;0.57;0.00;;;;;;;16.31;100.00;99566.44;5025252;28;20033;-69
2023/08/06 02:25:03;;;;;;;0.05;0.00;;;;;;;16.36;100.00;99579.00;5023109;28;20033;-69
2023/08/06 02:27:28;;;;;;;1.92;0.00;;;;;;;16.36;100.00;99568.47;5023078;28;20037;-69
2023/08/06 02:29:54;;;;;;;0.08;0.00;;;;;;;16.35;100.00;99562.41;5023932;28;20087;-68
2023/08/06 02:32:19;;;;;;;1.38;0.00;;;;;;;16.35;100.00;99558.97;5027844;28;20037;-68
2023/08/06 02:34:45;;;;;;;1.80;0.00;;;;;;;16.29;100.00;99565.03;5023005;28;20034;-69
2023/08/06 02:37:10;;;;;;;0.93;0.00;;;;;;;16.27;100.00;99568.69;5028638;28;20025;-68
2023/08/06 02:39:39;;;;;;;0.98;0.00;;;;;;;16.30;100.00;99564.03;5024179;28;20034;-69
2023/08/06 02:42:05;;;;;;;0.05;0.00;;;;;;;16.30;100.00;99561.41;5025818;28;20036;-69
2023/08/06 02:44:31;;;;;;;4.47;0.00;;;;;;;16.25;100.00;99562.00;5027741;28;20061;-68
2023/08/06 02:46:56;;;;;;;3.45;0.00;;;;;;;16.23;100.00;99567.47;5027061;28;20073;-68
2023/08/06 02:49:21;;;;;;;0.88;0.00;;;;;;;16.18;100.00;99569.88;5029033;28;20113;-68
2023/08/06 02:51:47;;;;;;;0.13;0.00;;;;;;;16.10;100.00;99562.19;5026271;28;20039;-68
2023/08/06 02:54:12;;;;;;;1.20;0.90;;;;;;;16.07;100.00;99559.97;5025742;28;20037;-68
2023/08/06 02:56:38;;;;;;;2.63;0.03;;;;;;;16.09;100.00;99555.31;5027747;28;20033;-68
2023/08/06 02:59:03;;;;;;;0.30;0.00;;;;;;;16.11;100.00;99555.94;5030218;28;20037;-68
2023/08/06 03:01:29;;;;;;;1.30;0.03;;;;;;;16.15;100.00;99558.97;5025179;28;20425;-68
2023/08/06 03:03:54;;;;;;;0.93;0.00;;;;;;;16.17;100.00;99563.00;5025935;28;20040;-69
2023/08/06 03:06:20;;;;;;;0.10;0.00;;;;;;;16.18;100.00;99563.81;5027255;28;20033;-68
2023/08/06 03:08:45;;;;;;;2.03;0.00;;;;;;;16.18;100.00;99569.06;5022235;28;20033;-68
2023/08/06 03:11:10;;;;;;;0.93;0.00;;;;;;;16.20;100.00;99572.31;5028344;28;20095;-68
2023/08/06 03:13:36;;;;;;;1.10;0.00;;;;;;;16.16;100.00;99569.28;5030575;28;20120;-68
2023/08/06 03:16:01;;;;;;;1.75;0.00;;;;;;;16.18;100.00;99575.13;5019780;28;20029;-68
2023/08/06 03:18:27;;;;;;;2.00;0.00;;;;;;;16.16;100.00;99579.78;5026705;28;20555;-68
2023/08/06 03:20:53;;;;;;;1.90;0.00;;;;;;;16.13;100.00;99580.19;5024448;28;20034;-68
2023/08/06 03:23:18;;;;;;;1.10;0.00;;;;;;;16.20;100.00;99574.94;5018902;28;20056;-68
2023/08/06 03:25:44;;;;;;;2.83;0.00;;;;;;;16.24;100.00;99569.06;5029428;28;20456;-68
2023/08/06 03:28:10;;;;;;;0.98;0.10;;;;;;;16.17;100.00;99570.09;5020526;28;20235;-69
2023/08/06 03:30:36;;;;;;;1.05;0.10;;;;;;;16.11;100.00;99563.81;5020117;28;20040;-68
2023/08/06 03:33:01;;;;;;;0.15;0.00;;;;;;;16.11;100.00;99566.44;5022083;28;20038;-69
2023/08/06 03:35:26;;;;;;;1.08;0.05;;;;;;;16.11;100.00;99563.81;5027262;28;20090;-69
2023/08/06 03:37:52;;;;;;;2.15;0.00;;;;;;;16.13;100.00;99561.78;5028435;28;20026;-69
2023/08/06 03:40:17;;;;;;;0.20;0.10;;;;;;;16.18;100.00;99563.81;5025997;28;21164;-68
2023/08/06 03:42:43;;;;;;;0.10;0.00;;;;;;;16.18;100.00;99556.75;5025258;28;20034;-69
2023/08/06 03:45:08;;;;;;;0.22;0.10;;;;;;;16.19;100.00;99561.00;5029164;28;20067;-69
2023/08/06 03:47:34;;;;;;;0.17;0.10;;;;;;;16.17;100.00;99547.25;5021938;28;20026;-69
2023/08/06 03:50:00;;;;;;;0.63;0.05;;;;;;;16.19;100.00;99547.84;5022588;28;20057;-68
2023/08/06 03:52:25;;;;;;;0.25;0.00;;;;;;;16.19;100.00;99545.22;5025579;28;20500;-68
2023/08/06 03:54:51;;;;;;;0.22;0.00;;;;;;;16.16;100.00;99539.56;5029260;28;20158;-69
2023/08/06 03:57:16;;;;;;;0.22;0.00;;;;;;;16.13;100.00;99548.66;5022260;28;20481;-69
2023/08/06 03:59:42;;;;;;;0.20;0.00;;;;;;;16.12;100.00;99544.41;5028198;28;20151;-69
2023/08/06 04:02:07;;;;;;;0.20;0.10;;;;;;;16.09;100.00;99541.38;5024853;28;20029;-68
2023/08/06 04:04:33;;;;;;;0.30;0.00;;;;;;;16.07;100.00;99532.91;5028595;28;20037;-69
2023/08/06 04:06:58;;;;;;;0.88;0.00;;;;;;;16.08;100.00;99531.88;5021181;28;20037;-69
2023/08/06 04:09:23;;;;;;;0.95;0.00;;;;;;;16.10;100.00;99538.56;5029399;28;20025;-69
2023/08/06 04:11:49;;;;;;;1.08;0.00;;;;;;;16.09;100.00;99528.25;5028691;28;20421;-68
2023/08/06 04:14:14;;;;;;;0.00;0.00;;;;;;;16.10;100.00;99529.84;5032983;28;20495;-68
2023/08/06 04:16:40;;;;;;;0.57;0.00;;;;;;;16.08;100.00;99526.63;5025575;28;20057;-68
2023/08/06 04:19:05;;;;;;;0.30;0.00;;;;;;;16.07;100.00;99536.31;5029914;28;20498;-69
2023/08/06 04:21:30;;;;;;;0.35;0.08;;;;;;;16.06;100.00;99539.19;5024067;28;20029;-69
2023/08/06 04:23:56;;;;;;;1.90;0.05;;;;;;;16.05;100.00;99533.13;5025722;28;20033;-69
2023/08/06 04:26:22;;;;;;;1.27;0.00;;;;;;;16.08;100.00;99537.13;5030894;28;20501;-69
2023/08/06 04:28:48;;;;;;;2.50;0.00;;;;;;;16.10;100.00;99543.00;5030850;28;20166;-69
2023/08/06 04:31:14;;;;;;;2.85;0.00;;;;;;;16.09;100.00;99549.25;5027713;28;20123;-69
2023/08/06 04:33:39;;;;;;;0.90;0.05;;;;;;;16.09;100.00;99552.69;5026136;28;20034;-69
2023/08/06 04:36:06;;;;;;;1.65;0.00;;;;;;;16.09;100.00;99551.88;5023524;28;20083;-69
2023/08/06 04:38:32;;;;;;;4.20;0.00;;;;;;;16.08;100.00;99553.72;5024613;28;20037;-69
2023/08/06 04:40:58;;;;;;;2.67;0.60;;;;;;;16.08;100.00;99564.22;5023324;28;20041;-68
2023/08/06 04:43:24;;;;;;;4.05;0.32;;;;;;;16.11;100.00;99571.69;5033375;28;20052;-68
2023/08/06 04:45:50;;;;;;;2.50;0.00;;;;;;;16.18;100.00;99582.22;5024723;28;20033;-68
2023/08/06 04:48:16;;;;;;;0.13;0.00;;;;;;;16.23;100.00;99588.47;5024215;28;20025;-68
2023/08/06 04:50:45;;;;;;;0.25;0.00;;;;;;;16.20;100.00;99593.34;5027825;28;20477;-68
2023/08/06 04:53:11;;;;;;;1.55;0.00;;;;;;;16.11;100.00;99597.97;5028406;28;20052;-68
2023/08/06 04:55:36;;;;;;;0.82;0.35;;;;;;;16.05;100.00;99596.19;5029792;28;20029;-68
2023/08/06 04:58:02;;;;;;;0.15;0.00;;;;;;;15.97;100.00;99591.13;5029139;28;20048;-69
2023/08/06 05:00:27;;;;;;;0.20;0.00;;;;;;;15.87;100.00;99581.00;5028456;28;20037;-69
2023/08/06 05:02:53;;;;;;;1.00;0.10;;;;;;;15.86;100.00;99587.25;5022638;28;20044;-69
2023/08/06 05:05:18;;;;;;;0.22;0.10;;;;;;;15.90;100.00;99587.66;5025999;28;20413;-69
2023/08/06 05:07:47;;;;;;;0.30;0.00;;;;;;;15.92;100.00;99590.91;5025405;28;20041;-68
2023/08/06 05:10:13;;;;;;;0.57;0.00;;;;;;;15.96;100.00;99589.50;5027391;28;20061;-68
2023/08/06 05:12:38;;;;;;;0.55;0.00;;;;;;;15.98;100.00;99584.03;5031738;28;20143;-69
2023/08/06 05:15:04;;;;;;;0.10;0.00;;;;;;;15.99;100.00;99580.41;5031401;28;20060;-69
2023/08/06 05:17:29;;;;;;;1.20;0.00;;;;;;;16.01;100.00;99578.38;5023145;28;20092;-69
2023/08/06 05:19:55;;;;;;;0.93;0.00;;;;;;;16.02;100.00;99559.78;5029606;28;20029;-70
2023/08/06 05:22:20;;;;;;;0.30;0.00;;;;;;;16.06;100.00;99565.47;5030111;28;20086;-69
2023/08/06 05:24:46;;;;;;;0.20;0.00;;;;;;;16.08;100.00;99563.41;5028434;28;20034;-69
2023/08/06 05:27:11;;;;;;;0.10;0.00;;;;;;;16.09;100.00;99560.56;5032026;28;20021;-69
2023/08/06 05:29:36;;;;;;;1.40;0.00;;;;;;;16.01;100.00;99563.44;5029582;28;20041;-69
2023/08/06 05:32:02;;;;;;;0.30;0.00;;;;;;;15.99;100.00;99560.19;5020713;28;20080;-69
2023/08/06 05:34:27;;;;;;;0.10;0.00;;;;;;;15.96;100.00;99567.66;5025974;28;20485;-70
2023/08/06 05:36:53;;;;;;;0.00;0.00;;;;;;;15.93;100.00;99563.63;5031376;28;20030;-70
2023/08/06 05:39:18;;;;;;;1.33;0.00;;;;;;;15.93;100.00;99561.00;5044873;28;20033;-70
2023/08/06 05:41:44;;;;;;;1.25;0.00;;;;;;;15.92;100.00;99559.38;5025589;28;20043;-70
2023/08/06 05:44:09;;;;;;;0.20;0.00;;;;;;;15.95;100.00;99556.34;5027232;28;20029;-70
2023/08/06 05:46:34;;;;;;;0.80;0.00;;;;;;;15.96;100.00;99552.72;5025649;28;20572;-70
2023/08/06 05:49:00;;;;;;;0.10;0.00;;;;;;;15.98;100.00;99561.22;5026576;28;20025;-70
2023/08/06 05:51:26;;;;;;;0.10;0.00;;;;;;;16.06;100.00;99549.69;5024400;28;20026;-70
2023/08/06 05:53:52;;;;;;;0.00;0.00;;;;;;;16.15;100.00;99562.41;5020301;28;20034;-70
2023/08/06 05:56:17;;;;;;;0.20;0.00;;;;;;;16.16;100.00;99563.22;5029672;28;20029;-70
2023/08/06 05:58:43;;;;;;;0.10;0.00;;;;;;;16.21;100.00;99558.97;5027344;28;20041;-70
2023/08/06 06:01:08;;;;;;;0.35;0.00;;;;;;;16.21;100.00;99564.22;5028520;28;20044;-70
2023/08/06 06:03:34;;;;;;;0.35;0.00;;;;;;;16.22;100.00;99573.72;5027499;28;20026;-70
2023/08/06 06:06:01;;;;;;;0.93;0.00;;;;;;;16.27;100.00;99568.69;5028880;28;20037;-70
2023/08/06 06:08:26;;;;;;;1.33;0.30;;;;;;;16.31;100.00;99568.28;5027585;28;20172;-70
2023/08/06 06:10:52;;;;;;;0.10;0.00;;;;;;;16.35;100.00;99577.38;5028233;28;20116;-70
2023/08/06 06:13:17;;;;;;;1.27;0.00;;;;;;;16.44;100.00;99576.16;5029816;28;20049;-70
2023/08/06 06:15:42;;;;;;;0.20;0.00;;;;;;;16.48;100.00;99577.38;5028790;28;20029;-70
2023/08/06 06:18:08;;;;;;;0.20;0.00;;;;;;;16.51;100.00;99579.59;5028636;28;20154;-70
2023/08/06 06:20:33;;;;;;;0.77;0.20;;;;;;;16.47;100.00;99570.50;5025982;28;20034;-69
2023/08/06 06:22:59;;;;;;;0.85;0.20;;;;;;;16.47;100.00;99573.94;5041338;28;20032;-69
2023/08/06 06:25:24;;;;;;;0.15;0.00;;;;;;;16.50;100.00;99573.53;5025337;28;20025;-70
2023/08/06 06:27:50;;;;;;;0.10;0.00;;;;;;;16.49;100.00;99577.16;5026244;28;20098;-69
2023/08/06 06:30:16;;;;;;;0.10;0.00;;;;;;;16.50;100.00;99583.22;5020752;28;20039;-70
2023/08/06 06:32:41;;;;;;;1.20;0.00;;;;;;;16.53;100.00;99574.94;5017428;28;20500;-69
2023/08/06 06:35:07;;;;;;;1.77;0.00;;;;;;;16.49;100.00;99577.16;5024824;28;20040;-69
2023/08/06 06:37:32;;;;;;;0.15;0.00;;;;;;;16.50;100.00;99583.22;5021830;28;20036;-70
2023/08/06 06:39:58;;;;;;;0.03;0.00;;;;;;;16.52;100.00;99573.31;5026501;28;20477;-69
2023/08/06 06:42:23;;;;;;;0.15;0.00;;;;;;;16.57;100.00;99565.59;5021370;28;20029;-69
2023/08/06 06:44:49;;;;;;;0.15;0.00;;;;;;;16.64;100.00;99568.22;5023300;28;20040;-69
2023/08/06 06:47:14;;;;;;;0.32;0.00;;;;;;;16.69;100.00;99565.81;5020624;28;20017;-69
2023/08/06 06:49:39;;;;;;;0.13;0.00;;;;;;;16.70;100.00;99570.88;5023158;28;20053;-69
2023/08/06 06:52:05;;;;;;;0.00;0.00;;;;;;;16.73;100.00;99567.03;5024220;28;20026;-69
2023/08/06 06:54:31;;;;;;;0.20;0.00;;;;;;;16.78;100.00;99572.47;5025174;28;20030;-70
2023/08/06 06:56:57;;;;;;;0.10;0.10;;;;;;;16.85;100.00;99571.44;5021205;28;20041;-69
2023/08/06 06:59:22;;;;;;;3.42;0.00;;;;;;;16.90;100.00;99576.09;5024876;28;20026;-69
2023/08/06 07:01:48;;;;;;;2.58;0.35;;;;;;;16.94;100.00;99569.41;5023500;28;20052;-69
2023/08/06 07:04:13;;;;;;;3.17;0.17;;;;;;;16.95;100.00;99576.28;5024496;28;20033;-69
2023/08/06 07:06:39;;;;;;;4.30;0.10;;;;;;;16.97;100.00;99583.97;5029183;28;20029;-70
2023/08/06 07:09:04;;;;;;;0.28;0.10;;;;;;;16.95;100.00;99580.75;5025167;28;20084;-70
2023/08/06 07:11:29;;;;;;;0.68;0.10;;;;;;;16.91;100.00;99580.34;5027916;28;20501;-70
2023/08/06 07:13:58;;;;;;;0.28;0.00;;;;;;;16.88;100.00;99576.28;5027282;28;20420;-70
2023/08/06 07:16:25;;;;;;;0.08;0.00;;;;;;;16.87;100.00;99564.16;5024089;28;20026;-70
2023/08/06 07:18:52;;;;;;;0.25;0.00;;;;;;;16.87;100.00;99566.78;5024671;28;20057;-70
2023/08/06 07:21:18;;;;;;;0.40;0.00;;;;;;;16.90;100.00;99573.47;5021871;28;20104;-70
2023/08/06 07:23:43;;;;;;;0.75;0.00;;;;;;;16.93;100.00;99570.41;5028838;28;20469;-70
2023/08/06 07:26:09;;;;;;;0.00;0.00;;;;;;;17.04;100.00;99582.91;5028353;28;20366;-70
2023/08/06 07:28:34;;;;;;;0.43;0.00;;;;;;;17.05;100.00;99581.88;5023054;28;20063;-70
2023/08/06 07:31:00;;;;;;;0.20;0.00;;;;;;;17.03;100.00;99593.63;5021668;28;20036;-71
2023/08/06 07:33:25;;;;;;;1.17;0.00;;;;;;;17.01;100.00;99591.25;5026130;28;20029;-71
2023/08/06 07:35:51;;;;;;;0.10;0.00;;;;;;;17.04;100.00;99590.00;5023071;28;20675;-68
2023/08/06 07:38:16;;;;;;;0.10;0.00;;;;;;;17.12;100.00;99598.47;5025950;28;20025;-68
2023/08/06 07:40:42;;;;;;;0.10;0.00;;;;;;;17.18;100.00;99602.91;5022303;28;20056;-68
2023/08/06 07:43:07;;;;;;;0.22;0.00;;;;;;;17.24;100.00;99611.81;5019773;28;20045;-68
2023/08/06 07:45:36;;;;;;;0.77;0.25;;;;;;;17.33;100.00;99601.84;5025624;28;20047;-68
2023/08/06 07:48:02;;;;;;;0.90;0.10;;;;;;;17.40;100.00;99613.16;5025367;28;20033;-66
2023/08/06 07:50:27;;;;;;;1.75;0.10;;;;;;;17.41;100.00;99612.97;5028234;28;20032;-66
2023/08/06 07:52:53;;;;;;;0.80;0.00;;;;;;;17.34;100.00;99608.72;5027569;28;20044;-66
2023/08/06 07:55:18;;;;;;;0.57;0.00;;;;;;;17.29;100.00;99605.91;5023807;28;20466;-67
2023/08/06 07:57:43;;;;;;;0.28;0.05;;;;;;;17.25;100.00;99602.88;5026801;28;20076;-66
2023/08/06 08:00:09;;;;;;;0.30;0.00;;;;;;;17.24;100.00;99604.72;5022070;28;20043;-66
2023/08/06 08:02:35;;;;;;;1.85;0.10;;;;;;;17.28;100.00;99601.66;5025305;28;20030;-66
2023/08/06 08:05:01;;;;;;;0.75;0.00;;;;;;;17.35;100.00;99605.09;5027917;28;20052;-66
2023/08/06 08:07:28;;;;;;;1.45;0.00;;;;;;;17.46;100.00;99599.97;5025183;28;20034;-66
2023/08/06 08:09:54;;;;;;;0.80;0.00;;;;;;;17.65;100.00;99597.44;5021869;28;20057;-66
2023/08/06 08:12:19;;;;;;;1.25;0.10;;;;;;;17.82;100.00;99593.31;5024888;28;20115;-66
2023/08/06 08:14:45;;;;;;;0.20;0.00;;;;;;;17.77;100.00;99601.03;5026830;28;20038;-67
2023/08/06 08:17:11;;;;;;;1.48;0.00;;;;;;;17.82;100.00;99598.59;5029777;28;20030;-66
2023/08/06 08:19:37;;;;;;;0.10;0.00;;;;;;;18.24;100.00;99597.88;5023757;28;20025;-66
2023/08/06 08:22:03;;;;;;;0.10;0.00;;;;;;;18.87;100.00;99596.91;5033298;28;20056;-66
2023/08/06 08:24:30;;;;;;;0.03;0.00;;;;;;;19.31;100.00;99593.16;5028278;28;20049;-66
2023/08/06 08:26:56;;;;;;;0.38;0.00;;;;;;;19.54;100.00;99589.81;5028670;28;20033;-66
2023/08/06 08:29:22;;;;;;;0.00;0.00;;;;;;;19.89;100.00;99597.84;5023542;28;20384;-66
2023/08/06 08:31:51;;;;;;;0.10;0.00;;;;;;;20.16;100.00;99598.28;5021130;28;20034;-66
2023/08/06 08:34:17;;;;;;;1.38;0.00;;;;;;;20.13;100.00;99591.59;5025619;28;20096;-66
2023/08/06 08:36:43;;;;;;;0.03;0.00;;;;;;;19.76;100.00;99595.44;5028719;28;20065;-66
2023/08/06 08:39:08;;;;;;;0.63;0.00;;;;;;;19.45;100.00;99589.28;5021970;28;20142;-66
2023/08/06 08:41:36;;;;;;;0.15;0.00;;;;;;;19.34;100.00;99592.72;5022244;28;20437;-66
2023/08/06 08:44:02;;;;;;;0.00;0.00;;;;;;;19.24;100.00;99602.97;5019458;28;21020;-66
2023/08/06 08:46:30;;;;;;;0.00;0.00;;;;;;;19.57;100.00;99602.59;5026834;28;20033;-66
2023/08/06 08:48:58;;;;;;;0.00;0.00;;;;;;;20.05;100.00;99607.78;5023181;28;20112;-66
2023/08/06 08:51:25;;;;;;;0.10;0.00;;;;;;;20.41;100.00;99608.66;5026705;28;20040;-65
2023/08/06 08:53:55;;;;;;;0.00;0.00;;;;;;;20.32;100.00;99605.50;5024557;28;20037;-63
2023/08/06 08:56:21;;;;;;;0.00;0.00;;;;;;;20.10;100.00;99610.56;5028124;28;20075;-65
2023/08/06 08:58:46;;;;;;;1.52;0.00;;;;;;;19.83;100.00;99612.81;5031891;28;20037;-66
2023/08/06 09:01:12;;;;;;;0.22;0.00;;;;;;;19.77;100.00;99615.53;5030057;28;20120;-65
2023/08/06 09:03:39;;;;;;;0.10;0.00;;;;;;;20.20;100.00;99612.66;5029790;28;20029;-65
2023/08/06 09:06:05;;;;;;;0.57;0.10;;;;;;;20.62;100.00;99615.25;5022524;28;20034;-65
2023/08/06 09:08:36;;;;;;;0.08;0.00;;;;;;;20.92;100.00;99620.38;5028175;28;20446;-65
2023/08/06 09:11:02;;;;;;;0.85;0.00;;;;;;;21.08;100.00;99620.47;5025377;28;20049;-65
2023/08/06 09:13:28;;;;;;;0.75;0.00;;;;;;;20.87;100.00;99615.78;5026920;28;20030;-65
2023/08/06 09:15:53;;;;;;;0.00;0.00;;;;;;;21.08;100.00;99614.38;5013959;28;20540;-65
2023/08/06 09:18:29;;;;;;;0.30;0.00;;;;;;;21.26;100.00;99611.63;5027483;28;20042;-65
2023/08/06 09:20:55;;;;;;;0.60;0.00;;;;;;;21.34;100.00;99607.78;5023469;28;20029;-65
2023/08/06 09:23:20;;;;;;;0.00;0.00;;;;;;;21.31;100.00;99618.84;5026886;28;20055;-64
2023/08/06 09:25:46;;;;;;;0.38;0.00;;;;;;;21.14;100.00;99616.09;5021906;28;20042;-65
2023/08/06 09:28:11;;;;;;;0.93;0.00;;;;;;;21.05;100.00;99614.84;5030716;28;20075;-65
2023/08/06 09:30:37;;;;;;;0.82;0.10;;;;;;;21.29;100.00;99612.97;5028383;28;20029;-65
2023/08/06 09:33:03;;;;;;;0.10;0.00;;;;;;;21.45;100.00;99618.34;5019195;28;20385;-65
2023/08/06 09:35:30;;;;;;;0.10;0.00;;;;;;;21.55;100.00;99615.06;5022714;28;20478;-65
2023/08/06 09:38:06;;;;;;;0.00;0.00;;;;;;;21.56;100.00;99616.69;5025104;28;20045;-65
2023/08/06 09:40:32;;;;;;;1.05;0.00;;;;;;;21.52;100.00;99611.06;5025210;28;20058;-65
2023/08/06 09:42:58;;;;;;;0.00;0.00;;;;;;;21.64;100.00;99618.97;5024680;28;20057;-64
2023/08/06 09:45:32;;;;;;;0.00;0.00;;;;;;;21.72;100.00;99620.44;5024795;28;20030;-65
2023/08/06 09:47:58;;;;;;;0.30;0.00;;;;;;;21.71;100.00;99619.63;5024053;28;20048;-65
2023/08/06 09:50:29;;;;;;;0.10;0.00;;;;;;;21.69;100.00;99608.47;5027478;28;20385;-65
2023/08/06 09:52:55;;;;;;;1.48;0.00;;;;;;;21.82;100.00;99615.28;5028947;28;20116;-64
2023/08/06 09:55:22;;;;;;;0.03;0.00;;;;;;;22.07;100.00;99618.44;5030580;28;20026;-65
2023/08/06 09:57:47;;;;;;;0.10;0.00;;;;;;;21.91;100.00;99613.88;5029546;28;20507;-65
2023/08/06 10:00:13;;;;;;;0.00;0.00;;;;;;;21.67;100.00;99618.50;5030159;28;20029;-65
2023/08/06 10:02:40;;;;;;;0.10;0.00;;;;;;;21.70;100.00;99619.88;5024419;28;20084;-65
2023/08/06 10:05:07;;;;;;;1.45;0.00;;;;;;;21.60;100.00;99611.72;5024191;28;20037;-65
2023/08/06 10:07:34;;;;;;;0.00;0.00;;;;;;;21.50;100.00;99626.38;5018375;28;20042;-65
2023/08/06 10:10:00;;;;;;;0.20;0.00;;;;;;;21.46;100.00;99616.50;5024060;28;20385;-65
2023/08/06 10:12:28;;;;;;;0.10;0.00;;;;;;;21.68;100.00;99616.66;5028065;28;20034;-65
2023/08/06 10:14:57;;;;;;;1.20;0.00;;;;;;;21.78;100.00;99619.47;5025906;28;20044;-66
2023/08/06 10:17:23;;;;;;;0.30;0.00;;;;;;;21.83;100.00;99620.34;5022644;28;20037;-66
2023/08/06 10:19:51;;;;;;;0.08;0.00;;;;;;;21.83;100.00;99616.91;5027088;28;20322;-66
2023/08/06 10:22:17;;;;;;;0.05;0.00;;;;;;;21.72;100.00;99613.28;5022041;28;20424;-66
2023/08/06 10:25:04;;;;;;;0.13;0.00;;;;;;;21.63;100.00;99613.91;5028602;28;20092;-66
2023/08/06 10:27:52;;;;;;;0.10;0.00;;;;;;;21.56;100.00;99615.88;5022088;28;20044;-66
2023/08/06 10:30:25;;;;;;;0.00;0.00;;;;;;;21.46;100.00;99624.44;5017718;28;20029;-65
2023/08/06 10:33:01;;;;;;;0.32;0.00;;;;;;;21.61;100.00;99629.22;5021096;28;20485;-66
2023/08/06 10:35:38;;;;;;;0.17;0.00;;;;;;;21.78;100.00;99624.75;5026419;28;20109;-65
2023/08/06 10:38:16;;;;;;;0.63;0.00;;;;;;;21.78;100.00;99619.47;5025532;28;20385;-65
2023/08/06 10:40:49;;;;;;;0.10;0.00;;;;;;;21.79;100.00;99616.56;5022172;28;20029;-65
2023/08/06 10:43:35;;;;;;;1.85;0.00;;;;;;;21.90;94.74;99614.09;5024790;28;20030;-66
2023/08/06 10:46:09;;;;;;;1.25;0.00;;;;;;;21.96;98.59;99613.97;5028765;28;20041;-66
2023/08/06 10:48:38;;;;;;;0.10;0.00;;;;;;;21.85;100.00;99614.81;5023492;28;20030;-66
2023/08/06 10:51:07;;;;;;;0.10;0.00;;;;;;;21.66;100.00;99616.06;5028922;28;20116;-66
2023/08/06 10:53:33;;;;;;;1.08;0.00;;;;;;;21.38;100.00;99616.84;5022697;28;20037;-66
2023/08/06 10:55:58;;;;;;;0.32;0.00;;;;;;;21.38;100.00;99622.16;5025366;28;20030;-65
2023/08/06 10:58:24;;;;;;;0.13;0.00;;;;;;;21.64;100.00;99612.84;5024277;28;20033;-66
2023/08/06 11:00:49;;;;;;;0.10;0.00;;;;;;;21.97;100.00;99602.31;5022691;28;20033;-66
2023/08/06 11:03:15;;;;;;;0.52;0.00;;;;;;;22.06;100.00;99603.56;5019983;28;20116;-67
2023/08/06 11:05:40;;;;;;;0.00;0.00;;;;;;;22.07;99.60;99596.41;5021698;28;20029;-66
2023/08/06 11:08:06;;;;;;;0.45;0.00;;;;;;;22.02;100.00;99596.31;5027946;28;20049;-66
2023/08/06 11:10:33;;;;;;;0.30;0.00;;;;;;;22.21;100.00;99591.59;5029460;28;20021;-65
2023/08/06 11:13:03;;;;;;;1.08;0.00;;;;;;;22.50;98.46;99595.75;5024355;28;20426;-65
2023/08/06 11:15:30;;;;;;;0.20;0.00;;;;;;;22.74;97.39;99597.13;5023674;28;20050;-65
2023/08/06 11:17:56;;;;;;;0.00;0.00;;;;;;;22.93;96.79;99599.53;5017726;28;20120;-65
2023/08/06 11:20:22;;;;;;;0.00;0.00;;;;;;;22.94;95.73;99598.50;5027694;28;20120;-69